createdAt,value
2022-11-12T00:03:30.935Z,100.00
2022-11-12T00:08:52.821Z,100.00
2022-11-12T00:14:16.170Z,100.00
2022-11-12T00:19:38.398Z,100.00
2022-11-12T00:25:00.299Z,100.00
2022-11-12T00:30:23.841Z,100.00
2022-11-12T00:35:45.830Z,100.00
2022-11-12T00:41:08.004Z,100.00
2022-11-12T00:46:31.520Z,100.00
2022-11-12T00:51:53.624Z,100.00
2022-11-12T00:57:15.986Z,100.00
2022-11-12T01:02:44.201Z,100.00
2022-11-12T01:08:08.640Z,100.00
2022-11-12T01:13:30.702Z,100.00
2022-11-12T01:18:56.871Z,100.00
2022-11-12T01:24:19.351Z,100.00
2022-11-12T01:29:41.703Z,100.00
2022-11-12T01:35:05.318Z,100.00
2022-11-12T01:40:27.544Z,100.00
2022-11-12T01:45:52.194Z,100.00
2022-11-12T01:51:17.186Z,100.00
2022-11-12T01:56:42.370Z,100.00
2022-11-12T02:02:04.613Z,100.00
2022-11-12T02:07:28.478Z,100.00
2022-11-12T02:13:11.587Z,100.00
2022-11-12T02:18:33.781Z,100.00
2022-11-12T02:24:02.229Z,100.00
2022-11-12T02:29:24.471Z,100.00
2022-11-12T02:34:46.952Z,100.00
2022-11-12T02:40:11.719Z,100.00
2022-11-12T02:45:33.616Z,100.00
2022-11-12T02:50:55.610Z,100.00
2022-11-12T02:56:19.059Z,100.00
2022-11-12T03:01:41.354Z,100.00
2022-11-12T03:07:04.396Z,100.00
2022-11-12T03:12:27.982Z,100.00
2022-11-12T03:17:50.272Z,100.00
2022-11-12T03:23:12.526Z,100.00
2022-11-12T03:28:35.898Z,100.00
2022-11-12T03:33:58.014Z,100.00
2022-11-12T03:39:20.255Z,100.00
2022-11-12T03:44:43.460Z,100.00
2022-11-12T03:50:06.649Z,100.00
2022-11-12T03:55:30.659Z,100.00
2022-11-12T04:00:54.266Z,100.00
2022-11-12T04:06:34.102Z,100.00
2022-11-12T04:12:16.605Z,100.00
2022-11-12T04:17:57.593Z,100.00
2022-11-12T04:23:19.872Z,100.00
2022-11-12T04:29:02.095Z,100.00
2022-11-12T04:34:31.591Z,100.00
2022-11-12T04:39:54.273Z,100.00
2022-11-12T04:45:16.636Z,100.00
2022-11-12T04:50:40.775Z,100.00
2022-11-12T04:56:02.884Z,100.00
2022-11-12T05:01:25.152Z,100.00
2022-11-12T05:06:55.056Z,100.00
2022-11-12T05:12:17.312Z,100.00
2022-11-12T05:17:43.880Z,100.00
2022-11-12T05:23:07.932Z,100.00
2022-11-12T05:28:29.972Z,100.00
2022-11-12T05:33:52.213Z,100.00
2022-11-12T05:39:15.710Z,100.00
2022-11-12T05:44:37.731Z,100.00
2022-11-12T05:49:59.520Z,100.00
2022-11-12T05:55:23.223Z,100.00
2022-11-12T06:00:45.609Z,100.00
2022-11-12T06:06:08.133Z,100.00
2022-11-12T06:11:32.243Z,100.00
2022-11-12T06:16:54.361Z,100.00
2022-11-12T06:22:16.414Z,100.00
2022-11-12T06:27:40.272Z,100.00
2022-11-12T06:33:02.742Z,100.00
2022-11-12T06:38:25.349Z,100.00
2022-11-12T06:43:49.373Z,100.00
2022-11-12T06:49:11.345Z,100.00
2022-11-12T06:54:33.274Z,100.00
2022-11-12T06:59:57.000Z,100.00
2022-11-12T07:05:19.381Z,100.00
2022-11-12T07:10:41.535Z,100.00
2022-11-12T07:16:07.022Z,100.00
2022-11-12T07:21:29.459Z,100.00
2022-11-12T07:26:51.719Z,100.00
2022-11-12T07:32:15.625Z,100.00
2022-11-12T07:37:37.648Z,100.00
2022-11-12T07:43:00.666Z,100.00
2022-11-12T07:48:24.149Z,100.00
2022-11-12T07:53:47.216Z,100.00
2022-11-12T07:59:09.675Z,100.00
2022-11-12T08:04:33.321Z,100.00
2022-11-12T08:09:55.643Z,100.00
2022-11-12T08:15:17.841Z,100.00
2022-11-12T08:20:41.112Z,100.00
2022-11-12T08:26:04.947Z,100.00
2022-11-12T08:31:26.960Z,100.00
2022-11-12T08:36:50.778Z,100.00
2022-11-12T08:42:12.831Z,100.00
2022-11-12T08:47:34.933Z,100.00
2022-11-12T08:53:02.832Z,100.00
2022-11-12T08:58:26.136Z,100.00
2022-11-12T09:03:50.633Z,100.00
2022-11-12T09:09:13.958Z,100.00
2022-11-12T09:14:36.387Z,100.00
2022-11-12T09:19:58.598Z,100.00
2022-11-12T09:25:22.323Z,99.20
2022-11-12T09:30:46.581Z,92.68
2022-11-12T09:36:09.552Z,94.40
2022-11-12T09:41:36.575Z,93.83
2022-11-12T09:47:04.107Z,87.66
2022-11-12T09:52:29.976Z,82.45
2022-11-12T09:57:53.795Z,77.18
2022-11-12T10:03:28.413Z,85.21
2022-11-12T10:08:54.564Z,88.70
2022-11-12T10:14:29.163Z,92.17
2022-11-12T10:20:02.188Z,94.88
2022-11-12T10:25:26.351Z,92.41
2022-11-12T10:30:49.783Z,92.43
2022-11-12T10:36:21.183Z,91.00
2022-11-12T10:41:43.793Z,90.35
2022-11-12T10:47:24.584Z,91.82
2022-11-12T10:52:58.269Z,89.58
2022-11-12T10:58:23.480Z,82.42
2022-11-12T11:03:52.289Z,88.02
2022-11-12T11:09:20.718Z,82.12
2022-11-12T11:14:44.526Z,73.56
2022-11-12T11:20:18.843Z,64.75
2022-11-12T11:25:41.076Z,61.46
2022-11-12T11:31:11.866Z,64.51
2022-11-12T11:36:47.673Z,66.02
2022-11-12T11:42:24.337Z,67.77
2022-11-12T11:48:01.547Z,68.37
2022-11-12T11:53:31.587Z,58.81
2022-11-12T11:59:14.156Z,56.77
2022-11-12T12:04:47.693Z,58.05
2022-11-12T12:10:46.285Z,60.80
2022-11-12T12:16:36.635Z,62.27
2022-11-12T12:22:00.973Z,65.71
2022-11-12T12:27:30.318Z,67.14
2022-11-12T12:32:58.208Z,65.58
2022-11-12T12:38:26.908Z,66.64
2022-11-12T12:43:55.664Z,63.78
2022-11-12T12:49:22.766Z,63.49
2022-11-12T12:54:58.517Z,64.81
2022-11-12T13:00:33.516Z,63.98
2022-11-12T13:06:08.071Z,69.60
2022-11-12T13:12:09.307Z,73.84
2022-11-12T13:17:50.368Z,76.52
2022-11-12T13:24:04.387Z,76.43
2022-11-12T13:29:42.024Z,73.26
2022-11-12T13:35:34.835Z,74.67
2022-11-12T13:41:07.752Z,74.05
2022-11-12T13:46:34.340Z,77.54
2022-11-12T13:52:00.797Z,77.99
2022-11-12T13:57:28.991Z,78.88
2022-11-12T14:02:55.291Z,79.00
2022-11-12T14:08:32.199Z,80.21
2022-11-12T14:14:06.935Z,79.58
2022-11-12T14:19:51.150Z,78.60
2022-11-12T14:25:19.818Z,80.15
2022-11-12T14:30:45.741Z,82.27
2022-11-12T14:36:14.229Z,84.40
2022-11-12T14:41:41.375Z,87.84
2022-11-12T14:47:03.892Z,99.19
2022-11-12T14:52:31.484Z,97.05
2022-11-12T14:57:58.924Z,97.10
2022-11-12T15:03:24.414Z,98.37
2022-11-12T15:08:58.527Z,100.00
2022-11-12T15:14:25.510Z,100.00
2022-11-12T15:19:48.034Z,100.00
2022-11-12T15:25:21.209Z,100.00
2022-11-12T15:31:02.107Z,100.00
2022-11-12T15:36:25.789Z,100.00
2022-11-12T15:41:48.380Z,100.00
2022-11-12T15:47:20.635Z,100.00
2022-11-12T15:52:43.143Z,100.00
2022-11-12T15:58:06.753Z,100.00
2022-11-12T16:03:31.378Z,100.00
2022-11-12T16:08:55.477Z,100.00
2022-11-12T16:14:19.815Z,100.00
2022-11-12T16:19:47.072Z,100.00
2022-11-12T16:25:10.418Z,100.00
2022-11-12T16:30:34.342Z,100.00
2022-11-12T16:35:57.800Z,100.00
2022-11-12T16:41:20.035Z,100.00
2022-11-12T16:46:43.860Z,100.00
2022-11-12T16:52:07.584Z,100.00
2022-11-12T16:57:29.675Z,100.00
2022-11-12T17:02:53.549Z,100.00
2022-11-12T17:08:17.517Z,100.00
2022-11-12T17:13:40.317Z,100.00
2022-11-12T17:19:03.110Z,100.00
2022-11-12T17:24:29.039Z,100.00
2022-11-12T17:29:51.606Z,100.00
2022-11-12T17:35:14.060Z,100.00
2022-11-12T17:40:37.856Z,100.00
2022-11-12T17:46:00.398Z,100.00
2022-11-12T17:51:24.583Z,100.00
2022-11-12T17:56:47.943Z,100.00
2022-11-12T18:02:12.815Z,100.00
2022-11-12T18:07:35.062Z,100.00
2022-11-12T18:12:59.175Z,100.00
2022-11-12T18:18:20.976Z,100.00
2022-11-12T18:23:44.719Z,100.00
2022-11-12T18:29:08.508Z,100.00
2022-11-12T18:34:30.424Z,100.00
2022-11-12T18:39:52.850Z,100.00
2022-11-12T18:45:16.613Z,100.00
2022-11-12T18:50:38.943Z,100.00
2022-11-12T18:56:02.999Z,100.00
2022-11-12T19:01:26.583Z,100.00
2022-11-12T19:06:48.605Z,100.00
2022-11-12T19:12:11.539Z,100.00
2022-11-12T19:17:35.106Z,100.00
2022-11-12T19:22:57.945Z,100.00
2022-11-12T19:28:20.368Z,100.00
2022-11-12T19:33:47.397Z,100.00
2022-11-12T19:39:09.683Z,100.00
2022-11-12T19:44:32.100Z,100.00
2022-11-12T19:49:55.507Z,100.00
2022-11-12T19:55:17.786Z,100.00
2022-11-12T20:00:40.571Z,100.00
2022-11-12T20:06:05.638Z,100.00
2022-11-12T20:11:28.029Z,100.00
2022-11-12T20:16:51.710Z,100.00
2022-11-12T20:22:16.414Z,100.00
2022-11-12T20:27:38.810Z,100.00
2022-11-12T20:33:01.248Z,100.00
2022-11-12T20:38:25.553Z,100.00
2022-11-12T20:43:48.823Z,100.00
2022-11-12T20:49:11.794Z,100.00
2022-11-12T20:54:35.301Z,100.00
2022-11-12T20:59:57.430Z,100.00
2022-11-12T21:05:19.713Z,100.00
2022-11-12T21:10:43.163Z,100.00
2022-11-12T21:16:06.902Z,100.00
2022-11-12T21:21:31.662Z,100.00
2022-11-12T21:26:55.588Z,100.00
2022-11-12T21:32:17.607Z,100.00
2022-11-12T21:37:39.543Z,100.00
2022-11-12T21:43:02.833Z,100.00
2022-11-12T21:48:25.339Z,100.00
2022-11-12T21:53:47.706Z,100.00
2022-11-12T21:59:11.086Z,100.00
2022-11-12T22:04:33.346Z,100.00
2022-11-12T22:09:57.028Z,100.00
2022-11-12T22:15:24.290Z,100.00
2022-11-12T22:20:57.260Z,100.00
2022-11-12T22:26:22.112Z,100.00
2022-11-12T22:31:45.965Z,100.00
2022-11-12T22:37:08.100Z,100.00
2022-11-12T22:42:30.126Z,100.00
2022-11-12T22:47:53.811Z,100.00
2022-11-12T22:53:16.207Z,100.00
2022-11-12T22:58:39.302Z,100.00
2022-11-12T23:04:04.951Z,100.00
2022-11-12T23:09:27.737Z,100.00
2022-11-12T23:14:49.602Z,100.00
2022-11-12T23:20:13.950Z,100.00
2022-11-12T23:25:37.043Z,100.00
2022-11-12T23:30:59.599Z,100.00
2022-11-12T23:36:24.648Z,100.00
2022-11-12T23:41:47.234Z,100.00
2022-11-12T23:47:09.957Z,100.00
2022-11-12T23:52:33.552Z,100.00
2022-11-12T23:57:56.023Z,100.00
